Time;durP1;ratioP1;P1;durP2;ratioP2;P2;SDS_P1;SDS_P2;PMS_P1;PMS_P2;Temp;Humidity;BMP_temperature;BMP_pressure;BME280_temperature;BME280_humidity;BME280_pressure;Samples;Min_cycle;Max_cycle;Signal;HPM_P1;HPM_P2
2021/08/12 00:00:05;;;;;;;5.75;4.53;;;;;;;37.48;20.73;94669.09;5116230;28;20047;-51
2021/08/12 00:02:32;;;;;;;5.75;4.35;;;;;;;37.38;20.57;94675.72;5116810;28;20051;-53
2021/08/12 00:04:59;;;;;;;7.10;4.95;;;;;;;37.32;20.60;94694.66;5116511;28;20050;-52
2021/08/12 00:07:27;;;;;;;5.57;5.05;;;;;;;36.97;21.28;94694.09;5116456;28;20051;-54
2021/08/12 00:09:55;;;;;;;5.30;4.80;;;;;;;37.38;20.66;94698.31;5115981;28;20051;-53
2021/08/12 00:12:22;;;;;;;4.90;4.15;;;;;;;37.48;20.50;94696.38;5116500;28;20051;-54
2021/08/12 00:14:49;;;;;;;6.22;5.13;;;;;;;37.32;20.92;94706.31;5115842;28;20047;-53
2021/08/12 00:17:16;;;;;;;6.07;4.88;;;;;;;37.32;20.78;94706.31;5101121;28;20059;-52
2021/08/12 00:19:43;;;;;;;5.28;4.70;;;;;;;37.40;20.58;94711.47;5096619;28;20055;-53
2021/08/12 00:22:10;;;;;;;6.32;5.13;;;;;;;37.45;20.34;94708.91;5115254;28;20044;-52
2021/08/12 00:24:37;;;;;;;5.35;4.80;;;;;;;37.48;20.62;94718.16;5116224;28;20389;-53
2021/08/12 00:27:05;;;;;;;5.57;4.53;;;;;;;37.72;19.62;94710.94;5116475;28;20054;-52
2021/08/12 00:29:32;;;;;;;5.45;4.78;;;;;;;37.64;19.98;94709.69;5115306;28;20048;-56
2021/08/12 00:32:04;;;;;;;5.03;4.28;;;;;;;37.79;19.84;94715.34;5114961;28;20054;-52
2021/08/12 00:34:33;;;;;;;6.43;4.97;;;;;;;37.74;19.63;94708.53;5115370;28;20048;-53
2021/08/12 00:37:02;;;;;;;5.93;4.97;;;;;;;37.68;19.88;94693.94;5114504;28;20051;-52
2021/08/12 00:39:30;;;;;;;5.30;4.80;;;;;;;37.50;20.55;94699.38;5115244;28;20467;-52
2021/08/12 00:41:58;;;;;;;5.03;4.53;;;;;;;37.44;20.75;94699.22;5114248;28;20436;-55
2021/08/12 00:44:26;;;;;;;5.97;5.07;;;;;;;37.31;20.55;94699.34;5115240;28;20051;-53
2021/08/12 00:46:53;;;;;;;5.57;4.85;;;;;;;37.22;20.62;94701.28;5114753;28;20054;-52
2021/08/12 00:49:21;;;;;;;5.40;4.90;;;;;;;36.99;21.46;94691.69;5114326;28;20051;-55
2021/08/12 00:51:52;;;;;;;5.28;4.78;;;;;;;36.96;21.44;94695.31;5113935;28;20058;-53
2021/08/12 00:54:19;;;;;;;5.75;5.05;;;;;;;37.12;21.19;94697.75;5114857;28;20050;-53
2021/08/12 00:56:48;;;;;;;5.60;4.47;;;;;;;37.20;21.12;94688.06;5114558;28;20054;-52
2021/08/12 00:59:16;;;;;;;5.60;5.05;;;;;;;37.48;20.40;94688.94;5114239;28;20044;-52
2021/08/12 01:01:43;;;;;;;6.93;4.53;;;;;;;37.41;20.58;94696.63;5114357;28;20044;-54
2021/08/12 01:04:11;;;;;;;5.68;5.10;;;;;;;37.25;20.88;94698.44;5097843;28;20498;-54
2021/08/12 01:07:07;;;;;;;5.75;5.20;;;;;;;36.95;21.49;94699.19;5114495;28;20445;-52
2021/08/12 01:09:53;;;;;;;6.57;4.60;;;;;;;36.89;21.29;94704.50;5097633;28;20048;-53
2021/08/12 01:12:39;;;;;;;5.70;4.82;;;;;;;36.70;21.60;94706.38;5114300;28;20498;-52
2021/08/12 01:15:16;;;;;;;5.75;4.97;;;;;;;36.56;22.06;94706.88;5114279;28;20051;-52
2021/08/12 01:18:07;;;;;;;5.60;5.10;;;;;;;37.23;20.81;94709.00;5114339;28;20058;-53
2021/08/12 01:21:16;;;;;;;5.88;5.28;;;;;;;37.20;20.81;94715.31;5096316;28;20052;-53
2021/08/12 01:23:45;;;;;;;5.80;5.13;;;;;;;37.10;20.96;94704.88;5113467;28;20047;-56
2021/08/12 01:26:18;;;;;;;8.37;5.63;;;;;;;36.64;21.37;94723.72;5113406;28;20043;-53
2021/08/12 01:28:47;;;;;;;6.22;5.25;;;;;;;36.77;21.41;94715.47;5114486;28;20055;-53
2021/08/12 01:31:33;;;;;;;5.90;5.30;;;;;;;36.68;21.53;94713.44;5096723;28;20473;-53
2021/08/12 01:34:15;;;;;;;8.38;4.97;;;;;;;36.45;21.96;94711.97;5108505;28;20044;-53
2021/08/12 01:36:43;;;;;;;6.00;5.22;;;;;;;36.82;21.64;94706.72;5109232;28;20043;-55
2021/08/12 01:39:15;;;;;;;6.03;4.93;;;;;;;37.05;21.20;94712.44;5113370;28;20509;-54
2021/08/12 01:41:46;;;;;;;5.95;5.30;;;;;;;37.02;21.32;94709.84;5096869;28;20047;-55
2021/08/12 01:44:14;;;;;;;6.25;5.50;;;;;;;37.10;20.80;94710.31;5114083;28;20058;-54
2021/08/12 01:46:46;;;;;;;8.60;5.35;;;;;;;37.05;20.90;94704.25;5113141;28;20040;-53
2021/08/12 01:49:13;;;;;;;5.53;4.95;;;;;;;36.95;20.89;94715.56;5097329;28;20081;-53
2021/08/12 01:51:41;;;;;;;7.00;4.82;;;;;;;37.04;20.83;94708.19;5114081;28;20039;-51
2021/08/12 01:54:09;;;;;;;5.45;4.78;;;;;;;36.99;20.80;94710.75;5097341;28;20032;-54
2021/08/12 01:56:38;;;;;;;5.53;5.00;;;;;;;37.06;20.36;94713.19;5097061;28;20043;-55
2021/08/12 01:59:05;;;;;;;6.28;5.30;;;;;;;36.94;20.77;94708.59;5113915;28;20450;-52
2021/08/12 02:01:33;;;;;;;5.82;5.07;;;;;;;36.94;20.80;94714.03;5113346;28;20042;-55
2021/08/12 02:04:01;;;;;;;5.13;4.63;;;;;;;36.90;20.76;94713.41;5114023;28;20181;-52
2021/08/12 02:06:36;;;;;;;6.60;4.97;;;;;;;36.54;20.90;94725.63;5113668;28;20043;-53
2021/08/12 02:09:04;;;;;;;5.63;5.13;;;;;;;36.90;20.46;94716.13;5085256;22;20045;-55
2021/08/12 02:11:35;;;;;;;5.70;5.03;;;;;;;36.48;21.22;94716.53;5053219;28;20056;-52
2021/08/12 02:14:03;;;;;;;5.38;4.88;;;;;;;36.24;21.53;94715.44;5057684;28;20048;-54
2021/08/12 02:16:30;;;;;;;7.68;5.20;;;;;;;36.20;21.49;94717.53;5073801;28;20061;-53
2021/08/12 02:18:58;;;;;;;5.78;5.28;;;;;;;36.40;20.98;94726.16;5058120;28;20048;-53
2021/08/12 02:21:37;;;;;;;6.22;5.18;;;;;;;36.03;21.72;94728.59;5072557;28;20055;-55
2021/08/12 02:24:37;;;;;;;7.13;5.18;;;;;;;35.98;21.72;94723.72;5073687;28;20063;-53
2021/08/12 02:27:09;;;;;;;6.25;5.15;;;;;;;36.11;21.43;94718.97;5057048;28;20474;-53
2021/08/12 02:29:38;;;;;;;5.97;5.38;;;;;;;36.11;21.49;94718.97;5077381;28;20044;-54
2021/08/12 02:32:09;;;;;;;5.82;5.10;;;;;;;35.86;22.12;94726.47;5051130;28;20045;-53
2021/08/12 02:34:40;;;;;;;5.72;4.88;;;;;;;35.71;21.96;94721.50;5073531;28;20045;-52
2021/08/12 02:37:11;;;;;;;5.20;4.70;;;;;;;35.94;21.74;94720.38;5073500;28;20053;-56
2021/08/12 02:39:40;;;;;;;5.67;5.07;;;;;;;34.38;23.84;94720.53;5060222;28;20079;-56
2021/08/12 02:42:08;;;;;;;6.22;5.57;;;;;;;34.76;23.13;94726.00;5085556;28;20051;-51
2021/08/12 02:44:35;;;;;;;6.35;5.50;;;;;;;34.93;23.02;94726.72;5072471;28;20045;-60
2021/08/12 02:47:05;;;;;;;7.28;5.68;;;;;;;35.34;22.34;94719.63;5060617;28;20501;-69
2021/08/12 02:49:37;;;;;;;6.00;5.30;;;;;;;35.29;22.51;94720.91;5083517;28;20043;-57
2021/08/12 02:52:04;;;;;;;;;;;;;;;35.45;22.15;94726.25;5076538;28;20409;-56
2021/08/12 02:54:33;;;;;;;5.90;5.10;;;;;;;35.61;22.41;94721.84;5087484;28;19916;-58
2021/08/12 02:57:01;;;;;;;5.70;4.65;;;;;;;35.79;21.98;94716.59;5076928;28;20058;-58
2021/08/12 02:59:28;;;;;;;8.15;5.10;;;;;;;35.83;21.64;94717.25;5091732;28;20048;-65
2021/08/12 03:01:57;;;;;;;9.02;5.75;;;;;;;35.62;21.76;94717.94;5056598;28;20048;-67
2021/08/12 03:04:30;;;;;;;5.35;4.85;;;;;;;35.90;21.80;94725.16;5071312;28;20045;-61
2021/08/12 03:06:58;;;;;;;5.60;5.10;;;;;;;35.86;21.81;94721.81;5075929;28;20044;-58
2021/08/12 03:09:27;;;;;;;7.18;5.55;;;;;;;36.01;21.62;94722.84;5073319;28;20065;-63
2021/08/12 03:11:56;;;;;;;7.10;4.95;;;;;;;36.07;21.46;94714.88;5056047;28;20482;-61
2021/08/12 03:14:23;;;;;;;5.45;4.95;;;;;;;36.05;21.87;94718.03;5039598;28;20053;-61
2021/08/12 03:16:50;;;;;;;5.65;4.72;;;;;;;35.85;21.72;94731.16;5056738;28;20053;-62
2021/08/12 03:19:18;;;;;;;5.72;4.88;;;;;;;36.24;21.43;94726.34;5056638;28;20486;-61
2021/08/12 03:22:05;;;;;;;6.10;5.07;;;;;;;36.07;21.73;94729.22;5072475;28;20040;-58
2021/08/12 03:24:46;;;;;;;5.60;5.10;;;;;;;36.18;21.38;94725.38;5055899;28;20045;-60
2021/08/12 03:27:15;;;;;;;7.85;4.82;;;;;;;36.00;21.84;94732.22;5055640;28;20052;-57
2021/08/12 03:29:44;;;;;;;7.07;5.32;;;;;;;35.83;21.87;94734.31;5055368;28;20049;-62
2021/08/12 03:32:11;;;;;;;6.70;5.05;;;;;;;35.99;21.62;94736.13;5055838;28;20052;-61
2021/08/12 03:34:39;;;;;;;7.20;5.38;;;;;;;35.57;22.50;94734.81;5055309;28;20053;-60
2021/08/12 03:37:06;;;;;;;6.65;5.07;;;;;;;35.03;23.10;94733.75;5055531;28;20044;-61
2021/08/12 03:39:36;;;;;;;6.80;5.53;;;;;;;35.59;22.32;94735.13;5054402;28;20056;-58
2021/08/12 03:42:03;;;;;;;6.47;5.22;;;;;;;35.53;22.43;94737.66;5056626;28;20044;-59
2021/08/12 03:44:30;;;;;;;7.53;5.55;;;;;;;35.94;21.92;94742.13;5055667;28;20060;-61
2021/08/12 03:46:58;;;;;;;7.45;5.72;;;;;;;35.75;22.12;94737.72;5055558;28;20072;-59
2021/08/12 03:49:25;;;;;;;6.45;5.10;;;;;;;36.08;21.77;94744.34;5055533;28;20049;-64
2021/08/12 03:51:53;;;;;;;6.55;5.40;;;;;;;36.08;21.45;94738.16;5072244;28;20384;-65
2021/08/12 03:54:20;;;;;;;6.82;5.38;;;;;;;36.18;21.95;94733.56;5056614;28;20049;-64
2021/08/12 03:56:48;;;;;;;5.95;5.38;;;;;;;36.18;21.71;94731.59;5055389;28;20328;-62
2021/08/12 03:59:16;;;;;;;7.80;5.55;;;;;;;36.22;21.45;94736.91;5067346;28;20078;-58
2021/08/12 04:01:43;;;;;;;6.65;5.38;;;;;;;36.24;21.46;94742.66;5076128;28;20446;-59
2021/08/12 04:04:10;;;;;;;7.10;5.72;;;;;;;36.11;21.73;94743.47;5076242;28;20062;-57
2021/08/12 04:06:37;;;;;;;6.88;5.70;;;;;;;36.36;21.09;94739.13;5091751;28;20469;-56
2021/08/12 04:09:04;;;;;;;7.30;5.20;;;;;;;36.38;21.66;94744.88;5089646;28;20118;-55
2021/08/12 04:11:31;;;;;;;7.22;5.10;;;;;;;37.61;20.85;94748.78;5071977;28;20382;-55
2021/08/12 04:13:59;;;;;;;6.30;5.10;;;;;;;38.43;19.94;94746.09;5064785;28;20048;-62
2021/08/12 04:16:27;;;;;;;7.43;4.90;;;;;;;38.62;20.09;94751.53;5055056;28;20049;-62
2021/08/12 04:18:54;;;;;;;6.00;4.85;;;;;;;39.17;19.67;94763.84;5055292;28;20045;-61
2021/08/12 04:21:21;;;;;;;9.98;6.28;;;;;;;37.85;20.56;94747.03;5054159;28;20048;-60
2021/08/12 04:23:48;;;;;;;5.90;5.10;;;;;;;37.28;20.57;94748.56;5061565;28;20557;-49
2021/08/12 04:26:16;;;;;;;7.07;5.18;;;;;;;36.92;21.05;94758.06;5084658;28;20052;-51
2021/08/12 04:28:43;;;;;;;7.63;5.50;;;;;;;36.96;21.34;94768.84;5067828;28;20052;-63
2021/08/12 04:31:10;;;;;;;7.28;5.47;;;;;;;37.89;20.26;94764.00;5067391;28;20044;-60
2021/08/12 04:33:37;;;;;;;5.40;4.90;;;;;;;38.43;19.43;94762.47;5074149;28;20048;-46
2021/08/12 04:36:04;;;;;;;10.10;5.20;;;;;;;37.41;20.84;94767.50;5061310;28;20071;-46
2021/08/12 04:38:32;;;;;;;7.10;5.00;;;;;;;39.00;19.23;94757.19;5054600;28;20386;-44
2021/08/12 04:40:59;;;;;;;7.35;5.50;;;;;;;38.85;19.75;94765.31;5054258;28;20045;-46
2021/08/12 04:43:26;;;;;;;6.13;5.53;;;;;;;39.17;19.27;94769.31;5053813;28;20067;-46
2021/08/12 04:45:53;;;;;;;7.78;5.10;;;;;;;39.17;19.22;94766.59;5055168;28;20147;-47
2021/08/12 04:48:20;;;;;;;8.18;5.30;;;;;;;39.52;18.88;94771.59;5065497;28;20364;-45
2021/08/12 04:50:48;;;;;;;7.63;5.38;;;;;;;39.70;18.46;94759.78;5054012;28;20044;-45
2021/08/12 04:53:15;;;;;;;8.43;6.03;;;;;;;40.00;18.47;94771.63;5056988;28;20051;-45
2021/08/12 04:55:42;;;;;;;9.57;6.10;;;;;;;39.89;18.47;94772.13;5053832;28;20474;-45
2021/08/12 04:58:09;;;;;;;9.73;6.95;;;;;;;38.82;19.20;94773.69;5066120;28;20056;-45
2021/08/12 05:00:36;;;;;;;6.25;5.63;;;;;;;38.09;20.64;94781.91;5074166;28;20060;-46
2021/08/12 05:03:04;;;;;;;6.80;5.60;;;;;;;38.15;20.24;94780.06;5075035;28;20355;-45
2021/08/12 05:05:32;;;;;;;6.55;5.82;;;;;;;37.94;20.93;94777.03;5069612;28;20443;-45
2021/08/12 05:07:59;;;;;;;7.03;5.20;;;;;;;38.01;20.51;94780.69;5054194;28;20041;-44
2021/08/12 05:10:29;;;;;;;5.68;5.18;;;;;;;37.84;20.84;94780.97;5063711;28;20380;-50
2021/08/12 05:12:57;;;;;;;6.45;5.40;;;;;;;38.03;20.13;94778.25;5070761;28;20372;-46
2021/08/12 05:15:24;;;;;;;7.22;5.28;;;;;;;37.86;20.23;94784.00;5055084;28;20404;-45
2021/08/12 05:17:51;;;;;;;5.68;5.18;;;;;;;38.10;19.98;94786.13;5054565;28;20048;-45
2021/08/12 05:20:18;;;;;;;5.63;5.10;;;;;;;37.98;20.44;94787.78;5059599;28;20044;-46
2021/08/12 05:22:46;;;;;;;5.05;4.63;;;;;;;38.01;20.00;94791.59;5073976;28;20375;-46
2021/08/12 05:25:13;;;;;;;6.47;5.18;;;;;;;38.18;19.94;94801.03;5073855;28;20040;-44
2021/08/12 05:27:40;;;;;;;6.53;5.10;;;;;;;38.24;20.20;94793.72;5073437;28;20052;-45
2021/08/12 05:30:08;;;;;;;7.18;5.18;;;;;;;38.27;20.45;94794.81;5074585;28;20040;-46
2021/08/12 05:32:35;;;;;;;8.15;5.25;;;;;;;38.41;20.38;94802.38;5073740;28;20048;-44
2021/08/12 05:35:05;;;;;;;6.00;5.30;;;;;;;38.64;19.86;94803.75;5073093;28;20048;-46
2021/08/12 05:37:32;;;;;;;6.22;4.97;;;;;;;38.87;19.99;94797.63;5073264;28;20059;-46
2021/08/12 05:40:00;;;;;;;5.63;5.13;;;;;;;39.05;19.88;94800.31;5072816;28;20044;-45
2021/08/12 05:42:30;;;;;;;7.07;5.18;;;;;;;39.03;19.80;94802.72;5059659;28;20056;-45
2021/08/12 05:44:58;;;;;;;7.43;5.30;;;;;;;39.19;19.51;94809.09;5054641;28;20070;-46
2021/08/12 05:47:25;;;;;;;5.40;4.90;;;;;;;39.10;20.02;94802.44;5057881;28;20367;-46
2021/08/12 05:49:52;;;;;;;5.80;5.20;;;;;;;39.34;19.54;94801.75;5073685;28;20359;-46
2021/08/12 05:52:20;;;;;;;6.28;5.07;;;;;;;39.58;19.12;94802.56;5054562;28;20792;-46
2021/08/12 05:54:47;;;;;;;5.32;4.82;;;;;;;39.78;19.36;94800.00;5053587;28;20377;-46
2021/08/12 05:57:14;;;;;;;5.70;5.03;;;;;;;40.15;19.04;94801.78;5069720;28;20056;-46
2021/08/12 05:59:42;;;;;;;5.18;4.70;;;;;;;40.10;19.01;94808.66;5054050;28;20045;-45
2021/08/12 06:02:09;;;;;;;7.97;5.10;;;;;;;40.08;19.03;94813.84;5055874;28;20448;-45
2021/08/12 06:04:39;;;;;;;6.43;5.32;;;;;;;40.00;19.14;94809.94;5053490;28;20049;-45
2021/08/12 06:07:09;;;;;;;7.07;5.10;;;;;;;40.47;18.63;94822.06;5052297;28;20045;-46
2021/08/12 06:09:36;;;;;;;6.00;4.80;;;;;;;40.49;18.55;94816.88;5053683;28;20048;-47
2021/08/12 06:12:04;;;;;;;6.40;4.97;;;;;;;40.71;18.51;94817.28;5071224;28;20439;-47
2021/08/12 06:14:33;;;;;;;7.47;5.22;;;;;;;40.47;18.61;94813.84;5073345;28;20045;-47
2021/08/12 06:17:03;;;;;;;5.72;5.18;;;;;;;40.14;18.96;94806.50;5072675;28;20442;-45
2021/08/12 06:19:32;;;;;;;10.50;4.60;;;;;;;40.35;18.80;94807.41;5089681;28;20048;-46
2021/08/12 06:21:59;;;;;;;5.78;4.50;;;;;;;40.48;18.71;94804.41;5064972;28;20060;-45
2021/08/12 06:24:27;;;;;;;5.43;5.00;;;;;;;40.64;18.54;94814.94;5053495;28;20359;-45
2021/08/12 06:26:54;;;;;;;6.28;5.07;;;;;;;40.54;18.79;94813.47;5053132;28;20045;-46
2021/08/12 06:29:22;;;;;;;6.57;4.97;;;;;;;40.51;18.88;94817.16;5053790;28;20056;-47
2021/08/12 06:31:54;;;;;;;8.38;4.90;;;;;;;40.75;18.48;94817.84;5069768;28;20044;-47
2021/08/12 06:34:21;;;;;;;5.47;4.60;;;;;;;40.66;18.49;94812.47;5072396;28;20059;-44
2021/08/12 06:36:48;;;;;;;4.90;4.40;;;;;;;40.89;18.41;94819.13;5089548;28;20048;-46
2021/08/12 06:39:16;;;;;;;4.43;4.03;;;;;;;41.28;18.22;94825.25;5072060;28;20064;-46
2021/08/12 06:41:43;;;;;;;5.55;5.05;;;;;;;41.39;18.41;94814.47;5072661;28;20044;-47
2021/08/12 06:44:11;;;;;;;5.22;4.72;;;;;;;41.49;18.47;94821.34;5069533;28;20044;-46
2021/08/12 06:46:38;;;;;;;4.97;4.28;;;;;;;41.42;18.11;94826.47;5054016;28;20048;-46
2021/08/12 06:49:09;;;;;;;4.97;4.47;;;;;;;41.63;17.91;94819.78;5052638;28;20485;-48
2021/08/12 06:51:40;;;;;;;4.75;4.13;;;;;;;41.70;17.50;94826.91;5052522;28;20044;-45
2021/08/12 06:54:08;;;;;;;3.97;3.58;;;;;;;41.72;17.56;94824.44;5058711;28;20059;-47
2021/08/12 06:56:38;;;;;;;4.80;4.40;;;;;;;41.87;17.54;94830.59;5053979;28;20467;-45
2021/08/12 06:59:05;;;;;;;6.25;4.60;;;;;;;42.19;17.29;94823.31;5074308;28;20060;-46
2021/08/12 07:01:32;;;;;;;5.10;4.60;;;;;;;41.99;17.74;94837.75;5076578;28;20378;-46
2021/08/12 07:04:00;;;;;;;5.43;4.38;;;;;;;42.11;17.36;94828.44;5092374;28;20040;-46
2021/08/12 07:06:28;;;;;;;5.25;4.25;;;;;;;42.48;17.38;94836.16;5076437;28;20056;-45
2021/08/12 07:08:55;;;;;;;5.47;4.45;;;;;;;42.32;17.31;94828.44;5068616;28;20444;-45
2021/08/12 07:11:24;;;;;;;4.43;4.03;;;;;;;42.41;17.19;94834.53;5055980;28;20044;-48
2021/08/12 07:13:52;;;;;;;4.53;4.13;;;;;;;42.41;16.88;94836.53;5056543;28;20053;-46
2021/08/12 07:16:20;;;;;;;4.80;4.30;;;;;;;42.84;16.97;94836.75;5056308;28;20444;-46
2021/08/12 07:18:51;;;;;;;5.88;4.88;;;;;;;42.72;16.83;94825.66;5086443;28;20052;-47
2021/08/12 07:21:23;;;;;;;5.10;4.60;;;;;;;42.91;16.44;94833.59;5063281;28;20048;-48
2021/08/12 07:23:53;;;;;;;4.72;4.32;;;;;;;43.25;16.42;94832.66;5055468;28;20049;-46
2021/08/12 07:26:20;;;;;;;5.70;4.75;;;;;;;43.19;16.43;94837.31;5057015;28;20045;-48
2021/08/12 07:28:48;;;;;;;4.95;4.55;;;;;;;43.35;16.59;94841.47;5084567;28;20052;-46
2021/08/12 07:31:16;;;;;;;4.85;4.35;;;;;;;43.94;15.65;94836.13;5075903;28;20048;-49
2021/08/12 07:33:43;;;;;;;6.15;4.80;;;;;;;44.22;15.70;94825.25;5069769;28;20053;-48
2021/08/12 07:36:11;;;;;;;9.38;4.80;;;;;;;44.14;15.69;94837.25;5056417;28;20040;-48
2021/08/12 07:38:38;;;;;;;6.07;4.60;;;;;;;44.32;15.75;94836.81;5057424;28;20060;-47
2021/08/12 07:41:05;;;;;;;4.50;4.10;;;;;;;43.82;16.39;94829.06;5076836;28;20052;-48
2021/08/12 07:43:33;;;;;;;5.68;4.60;;;;;;;43.57;16.23;94838.13;5076682;28;20048;-47
2021/08/12 07:46:00;;;;;;;5.03;4.53;;;;;;;43.42;16.50;94832.03;5076772;28;20363;-47
2021/08/12 07:48:27;;;;;;;5.20;4.60;;;;;;;43.97;16.02;94839.88;5076064;28;20048;-47
2021/08/12 07:50:55;;;;;;;6.32;4.60;;;;;;;44.10;15.84;94837.47;5076261;28;20340;-48
2021/08/12 07:53:22;;;;;;;5.22;4.53;;;;;;;44.39;15.54;94841.84;5076578;28;20048;-47
2021/08/12 07:55:49;;;;;;;7.47;4.55;;;;;;;44.18;15.74;94838.50;5076156;28;20048;-46
2021/08/12 07:58:16;;;;;;;5.32;4.63;;;;;;;43.55;16.34;94837.88;5063498;28;20056;-47
2021/08/12 08:00:43;;;;;;;6.47;4.57;;;;;;;43.75;15.81;94839.78;5076469;28;20359;-48
2021/08/12 08:03:10;;;;;;;5.43;4.72;;;;;;;44.17;15.50;94841.75;5076394;28;20045;-46
2021/08/12 08:05:37;;;;;;;6.28;4.40;;;;;;;44.19;15.51;94839.25;5076304;28;20044;-56
2021/08/12 08:08:05;;;;;;;6.03;5.22;;;;;;;44.24;15.54;94835.75;5070071;28;20059;-49
2021/08/12 08:10:34;;;;;;;7.78;7.10;;;;;;;44.24;15.22;94841.28;5076047;28;20057;-47
2021/08/12 08:13:01;;;;;;;6.18;5.57;;;;;;;44.27;15.28;94835.56;5076176;28;20045;-47
2021/08/12 08:15:28;;;;;;;7.93;4.82;;;;;;;44.14;14.86;94837.25;5075812;28;20044;-47
2021/08/12 08:17:55;;;;;;;5.15;4.38;;;;;;;44.52;14.47;94838.66;5075170;28;20048;-47
2021/08/12 08:20:22;;;;;;;7.40;4.30;;;;;;;44.29;14.77;94833.06;5056271;28;20328;-48
2021/08/12 08:22:50;;;;;;;5.35;4.05;;;;;;;44.34;13.91;94836.31;5056064;28;20045;-51
2021/08/12 08:25:23;;;;;;;5.30;3.92;;;;;;;44.48;13.79;94833.38;5055916;28;20355;-47
2021/08/12 08:27:50;;;;;;;5.95;4.00;;;;;;;44.52;13.51;94828.41;5054934;28;20052;-56
2021/08/12 08:30:19;;;;;;;7.10;4.13;;;;;;;44.54;13.75;94825.88;5055599;28;20367;-48
2021/08/12 08:32:46;;;;;;;10.52;4.72;;;;;;;44.08;14.04;94833.72;5055700;28;20041;-48
2021/08/12 08:35:13;;;;;;;4.68;4.28;;;;;;;43.99;14.01;94829.91;5055808;28;20439;-48
2021/08/12 08:37:40;;;;;;;5.13;4.20;;;;;;;44.26;13.71;94827.78;5055519;28;20052;-47
2021/08/12 08:40:08;;;;;;;4.57;4.18;;;;;;;44.46;13.73;94830.34;5070022;28;20067;-48
2021/08/12 08:42:37;;;;;;;16.33;14.65;;;;;;;44.82;12.91;94820.44;5075551;28;20055;-49
2021/08/12 08:45:05;;;;;;;6.20;5.70;;;;;;;44.63;13.17;94815.88;5074994;28;20386;-49
2021/08/12 08:47:33;;;;;;;8.07;5.32;;;;;;;45.05;13.10;94823.22;5075350;28;20056;-46
2021/08/12 08:50:02;;;;;;;6.82;4.68;;;;;;;44.93;13.20;94822.47;5057194;28;20075;-46
2021/08/12 08:52:29;;;;;;;6.03;4.38;;;;;;;45.04;12.87;94822.47;5055168;28;20432;-47
2021/08/12 08:54:56;;;;;;;7.03;4.50;;;;;;;45.16;12.89;94823.97;5070773;28;20359;-51
2021/08/12 08:57:23;;;;;;;4.50;4.10;;;;;;;44.83;13.09;94824.69;5070099;28;20044;-47
2021/08/12 08:59:51;;;;;;;4.63;4.20;;;;;;;44.96;12.76;94826.97;5080382;28;20060;-47
2021/08/12 09:02:18;;;;;;;8.82;4.20;;;;;;;44.88;12.75;94814.94;5055020;28;20041;-47
2021/08/12 09:04:46;;;;;;;4.78;4.05;;;;;;;45.22;12.87;94814.94;5055274;28;20466;-47
2021/08/12 09:07:13;;;;;;;4.78;4.07;;;;;;;45.80;12.78;94824.91;5057880;28;20056;-50
2021/08/12 09:09:40;;;;;;;6.20;4.20;;;;;;;45.88;12.90;94818.91;5057428;28;20057;-48
2021/08/12 09:12:07;;;;;;;5.65;4.43;;;;;;;45.19;12.09;94817.44;5054153;28;20040;-50
2021/08/12 09:14:42;;;;;;;5.45;3.88;;;;;;;45.19;12.03;94817.44;5054939;28;20056;-47
2021/08/12 09:17:22;;;;;;;4.30;3.90;;;;;;;45.39;11.74;94812.94;5054914;28;20048;-47
2021/08/12 09:20:08;;;;;;;;;;;;;;;45.20;12.11;94818.94;5067986;28;20390;-47
2021/08/12 09:22:52;;;;;;;4.72;3.92;;;;;;;45.40;11.48;94808.94;5074682;28;20225;-47
2021/08/12 09:25:40;;;;;;;6.32;3.60;;;;;;;45.19;11.27;94816.69;5075027;28;20041;-47
2021/08/12 09:28:24;;;;;;;6.55;3.67;;;;;;;45.49;11.75;94811.41;5074774;28;20052;-46
2021/08/12 09:31:00;;;;;;;4.78;3.65;;;;;;;45.55;11.33;94808.66;5054489;28;20064;-47
2021/08/12 09:33:39;;;;;;;18.65;17.00;;;;;;;45.43;11.51;94819.72;5056391;28;20048;-48
2021/08/12 09:36:27;;;;;;;6.20;5.60;;;;;;;45.56;11.36;94821.22;5070209;28;20048;-48
2021/08/12 09:39:14;;;;;;;9.45;4.68;;;;;;;45.77;11.33;94819.66;5060748;28;20482;-49
2021/08/12 09:41:42;;;;;;;5.75;4.10;;;;;;;45.51;11.73;94825.47;5058683;28;20517;-45
2021/08/12 09:44:52;;;;;;;6.85;3.47;;;;;;;45.15;11.38;94819.72;5054995;28;20045;-47
2021/08/12 09:47:19;;;;;;;9.48;3.30;;;;;;;45.08;11.25;94817.47;5034924;28;20053;-48
2021/08/12 09:49:55;;;;;;;9.50;3.70;;;;;;;45.47;10.58;94817.44;5054399;28;20053;-48
2021/08/12 09:52:34;;;;;;;4.60;3.25;;;;;;;44.69;11.08;94813.88;5054204;28;20056;-47
2021/08/12 09:55:05;;;;;;;7.07;3.80;;;;;;;45.29;11.16;94808.97;5052835;28;20049;-46
2021/08/12 09:57:44;;;;;;;3.97;3.67;;;;;;;45.30;10.90;94807.69;5054238;28;20052;-47
2021/08/12 10:00:33;;;;;;;3.40;3.05;;;;;;;45.78;10.82;94813.63;5057730;28;20471;-47
2021/08/12 10:03:02;;;;;;;4.40;4.00;;;;;;;45.38;11.20;94801.16;5066606;28;20426;-54
2021/08/12 10:05:34;;;;;;;14.20;4.20;;;;;;;45.82;11.04;94813.41;5073280;28;20367;-74
2021/08/12 10:08:03;;;;;;;7.97;4.05;;;;;;;45.57;11.25;94801.38;5073534;28;20041;-63
2021/08/12 10:10:31;;;;;;;9.07;4.07;;;;;;;45.92;11.05;94806.31;5069009;28;20387;-58
2021/08/12 10:12:59;;;;;;;5.45;3.88;;;;;;;46.07;10.46;94798.53;5053987;28;20056;-52
2021/08/12 10:15:27;;;;;;;5.18;4.22;;;;;;;45.69;11.27;94802.88;5054103;28;20357;-51
2021/08/12 10:17:56;;;;;;;189.45;159.32;;;;;;;45.79;11.06;94800.56;5054130;28;20057;-46
2021/08/12 10:20:30;;;;;;;202.25;170.43;;;;;;;46.28;10.55;94782.31;5069373;28;20052;-51
2021/08/12 10:22:59;;;;;;;226.05;202.80;;;;;;;46.72;10.79;94794.41;5053411;28;20056;-50
2021/08/12 10:25:27;;;;;;;38.25;31.58;;;;;;;47.35;9.78;94789.91;5054266;28;20049;-60
2021/08/12 10:27:58;;;;;;;13.38;10.55;;;;;;;47.43;9.50;94794.38;5055915;28;20049;-58
2021/08/12 10:30:27;;;;;;;7.50;5.53;;;;;;;47.09;9.36;94793.88;5083629;28;20045;-56
2021/08/12 10:32:57;;;;;;;4.05;3.65;;;;;;;46.80;9.31;94784.31;5055068;28;20459;-60
2021/08/12 10:35:28;;;;;;;4.55;4.15;;;;;;;46.55;9.50;94796.50;5058019;28;20056;-60
2021/08/12 10:37:56;;;;;;;5.32;3.88;;;;;;;45.59;9.92;94801.63;5059191;28;20443;-57
2021/08/12 10:40:27;;;;;;;11.63;4.10;;;;;;;45.21;9.92;94786.59;5068820;28;20419;-57
2021/08/12 10:42:56;;;;;;;5.20;3.83;;;;;;;45.20;9.82;94794.13;5077674;28;20055;-56
2021/08/12 10:45:24;;;;;;;3.92;3.60;;;;;;;45.07;10.00;94796.66;5075937;28;20049;-54
2021/08/12 10:47:56;;;;;;;4.45;3.60;;;;;;;45.26;10.16;94791.38;5076741;28;20048;-54
2021/08/12 10:50:23;;;;;;;5.50;3.90;;;;;;;45.37;10.23;94787.88;5075036;28;20044;-54
2021/08/12 10:53:10;;;;;;;5.78;3.97;;;;;;;45.00;9.89;94788.09;5065331;28;20051;-54
2021/08/12 10:55:40;;;;;;;43.47;39.30;;;;;;;44.92;10.26;94787.84;5068054;28;20083;-51
2021/08/12 11:01:00;;;;;;;8.60;6.82;;;;;;;44.64;10.69;94804.34;5067621;28;20059;-56
2021/08/12 11:03:33;;;;;;;5.75;4.60;;;;;;;44.64;10.80;94814.63;5067310;28;20044;-55
2021/08/12 11:06:05;;;;;;;7.22;4.05;;;;;;;44.45;11.59;94812.28;5065422;28;20045;-52
2021/08/12 11:09:02;;;;;;;5.15;4.22;;;;;;;44.40;11.61;94821.31;5067072;28;20068;-50
2021/08/12 11:11:32;;;;;;;6.68;4.05;;;;;;;44.32;12.20;94825.78;5058392;28;20386;-49
2021/08/12 11:14:08;;;;;;;5.90;3.90;;;;;;;44.09;12.29;94818.69;5066378;28;20483;-52
2021/08/12 11:16:42;;;;;;;5.65;4.10;;;;;;;43.66;12.58;94815.91;5056937;28;20053;-57
2021/08/12 11:19:21;;;;;;;5.95;4.55;;;;;;;43.39;12.73;94823.50;5056468;28;20045;-46
2021/08/12 11:21:49;;;;;;;5.53;4.53;;;;;;;43.41;13.03;94827.75;5071717;28;20509;-48
2021/08/12 11:24:25;;;;;;;5.68;4.60;;;;;;;43.42;13.16;94826.53;5089054;28;20551;-57
2021/08/12 11:27:02;;;;;;;5.85;4.43;;;;;;;43.42;13.09;94834.78;5077047;28;20049;-54
2021/08/12 11:29:30;;;;;;;6.97;4.22;;;;;;;43.29;13.02;94827.69;5056696;28;20055;-56
2021/08/12 11:32:03;;;;;;;4.63;4.18;;;;;;;43.36;12.86;94827.25;5055235;28;20375;-57
2021/08/12 11:34:52;;;;;;;6.15;4.20;;;;;;;43.41;12.81;94825.00;5056995;28;20059;-51
2021/08/12 11:37:27;;;;;;;6.82;4.40;;;;;;;43.32;13.06;94821.22;5056075;28;20045;-55
2021/08/12 11:40:11;;;;;;;4.63;4.20;;;;;;;43.49;12.63;94812.31;5055467;28;20048;-54
2021/08/12 11:42:44;;;;;;;4.90;4.40;;;;;;;43.57;12.82;94808.63;5074824;28;20374;-56
2021/08/12 11:45:16;;;;;;;8.43;7.65;;;;;;;43.30;12.93;94814.69;5075073;28;20040;-48
2021/08/12 11:47:45;;;;;;;10.18;9.27;;;;;;;43.23;12.90;94818.63;5076267;28;20051;-57
2021/08/12 11:50:14;;;;;;;6.35;4.75;;;;;;;43.37;12.56;94822.50;5076537;28;20044;-57